createdAt,value
2022-11-03T00:00:49.622Z,8.93
2022-11-03T00:01:53.992Z,8.92
2022-11-03T00:02:58.152Z,8.92
2022-11-03T00:04:02.278Z,8.91
2022-11-03T00:05:06.576Z,8.90
2022-11-03T00:06:10.862Z,8.89
2022-11-03T00:07:15.103Z,8.87
2022-11-03T00:08:19.264Z,8.86
2022-11-03T00:09:23.404Z,8.85
2022-11-03T00:10:27.758Z,8.84
2022-11-03T00:11:32.001Z,8.83
2022-11-03T00:12:36.177Z,8.82
2022-11-03T00:13:40.439Z,8.80
2022-11-03T00:14:44.514Z,8.79
2022-11-03T00:15:48.692Z,8.79
2022-11-03T00:16:52.964Z,8.79
2022-11-03T00:17:57.297Z,8.78
2022-11-03T00:19:01.545Z,8.77
2022-11-03T00:20:05.695Z,8.77
2022-11-03T00:21:10.040Z,8.77
2022-11-03T00:22:14.071Z,8.77
2022-11-03T00:23:18.423Z,8.76
2022-11-03T00:24:22.702Z,8.75
2022-11-03T00:25:26.962Z,8.74
2022-11-03T00:26:31.161Z,8.73
2022-11-03T00:27:35.396Z,8.73
2022-11-03T00:28:39.702Z,8.72
2022-11-03T00:29:43.875Z,8.72
2022-11-03T00:30:48.215Z,8.72
2022-11-03T00:31:52.388Z,8.71
2022-11-03T00:32:56.678Z,8.72
2022-11-03T00:34:00.868Z,8.72
2022-11-03T00:35:05.171Z,8.72
2022-11-03T00:36:09.446Z,8.72
2022-11-03T00:37:13.671Z,8.73
2022-11-03T00:38:17.927Z,8.73
2022-11-03T00:39:22.172Z,8.73
2022-11-03T00:40:26.368Z,8.73
2022-11-03T00:41:30.566Z,8.72
2022-11-03T00:42:34.771Z,8.71
2022-11-03T00:43:39.082Z,8.70
2022-11-03T00:44:43.359Z,8.70
2022-11-03T00:45:47.654Z,8.69
2022-11-03T00:46:54.805Z,8.68
2022-11-03T00:47:58.170Z,8.68
2022-11-03T00:49:02.277Z,8.67
2022-11-03T00:50:06.491Z,8.66
2022-11-03T00:51:10.695Z,8.66
2022-11-03T00:52:14.900Z,8.65
2022-11-03T00:53:19.131Z,8.64
2022-11-03T00:54:23.414Z,8.63
2022-11-03T00:55:27.651Z,8.63
2022-11-03T00:56:31.918Z,8.61
2022-11-03T00:57:36.189Z,8.60
2022-11-03T00:58:40.490Z,8.59
2022-11-03T00:59:44.775Z,8.58
2022-11-03T01:00:48.973Z,8.57
2022-11-03T01:01:53.477Z,8.57
2022-11-03T01:02:57.437Z,8.56
2022-11-03T01:04:01.637Z,8.54
2022-11-03T01:05:05.931Z,8.54
2022-11-03T01:06:10.191Z,8.53
2022-11-03T01:07:14.487Z,8.53
2022-11-03T01:08:20.407Z,8.53
2022-11-03T01:09:22.844Z,8.53
2022-11-03T01:10:27.173Z,8.53
2022-11-03T01:11:31.422Z,8.53
2022-11-03T01:12:35.681Z,8.53
2022-11-03T01:13:39.958Z,8.53
2022-11-03T01:14:44.285Z,8.53
2022-11-03T01:15:48.534Z,8.53
2022-11-03T01:16:52.711Z,8.53
2022-11-03T01:17:56.962Z,8.53
2022-11-03T01:19:01.173Z,8.53
2022-11-03T01:20:05.481Z,8.52
2022-11-03T01:21:09.667Z,8.51
2022-11-03T01:22:13.847Z,8.50
2022-11-03T01:23:18.097Z,8.49
2022-11-03T01:24:22.398Z,8.49
2022-11-03T01:25:26.681Z,8.48
2022-11-03T01:26:30.835Z,8.47
2022-11-03T01:27:35.152Z,8.47
2022-11-03T01:28:39.312Z,8.42
2022-11-03T01:29:43.519Z,8.35
2022-11-03T01:30:47.827Z,8.29
2022-11-03T01:31:52.039Z,8.22
2022-11-03T01:32:56.178Z,8.13
2022-11-03T01:34:00.362Z,8.04
2022-11-03T01:35:04.556Z,7.97
2022-11-03T01:36:08.628Z,7.90
2022-11-03T01:37:12.849Z,7.82
2022-11-03T01:38:17.039Z,7.75
2022-11-03T01:39:21.238Z,7.67
2022-11-03T01:40:25.432Z,7.62
2022-11-03T01:41:29.659Z,7.60
2022-11-03T01:42:33.861Z,7.58
2022-11-03T01:43:38.151Z,7.56
2022-11-03T01:44:42.398Z,7.57
2022-11-03T01:45:46.568Z,7.59
2022-11-03T01:46:50.818Z,7.61
2022-11-03T01:47:55.006Z,7.63
2022-11-03T01:48:59.172Z,7.66
2022-11-03T01:50:03.341Z,7.69
2022-11-03T01:51:07.585Z,7.73
2022-11-03T01:52:11.793Z,7.76
2022-11-03T01:53:15.984Z,7.80
2022-11-03T01:54:20.182Z,7.83
2022-11-03T01:55:24.425Z,7.84
2022-11-03T01:56:28.656Z,7.85
2022-11-03T01:57:32.865Z,7.86
2022-11-03T01:58:37.065Z,7.87
2022-11-03T01:59:41.449Z,7.90
2022-11-03T02:00:45.820Z,7.92
2022-11-03T02:01:50.012Z,7.94
2022-11-03T02:02:54.112Z,7.96
2022-11-03T02:03:58.395Z,7.98
2022-11-03T02:05:02.590Z,7.99
2022-11-03T02:06:06.874Z,7.98
2022-11-03T02:07:11.058Z,7.98
2022-11-03T02:08:15.264Z,7.99
2022-11-03T02:09:19.569Z,8.00
2022-11-03T02:10:23.820Z,8.01
2022-11-03T02:11:27.960Z,8.02
2022-11-03T02:12:32.130Z,8.03
2022-11-03T02:13:36.323Z,8.05
2022-11-03T02:14:40.615Z,8.05
2022-11-03T02:15:44.876Z,8.06
2022-11-03T02:16:49.046Z,8.07
2022-11-03T02:17:53.228Z,8.07
2022-11-03T02:18:57.484Z,8.06
2022-11-03T02:20:01.649Z,8.06
2022-11-03T02:21:05.984Z,8.06
2022-11-03T02:22:10.239Z,8.05
2022-11-03T02:23:14.495Z,8.05
2022-11-03T02:24:18.670Z,8.05
2022-11-03T02:25:22.869Z,8.05
2022-11-03T02:26:27.067Z,8.04
2022-11-03T02:27:31.270Z,8.04
2022-11-03T02:28:35.573Z,8.04
2022-11-03T02:29:39.818Z,8.04
2022-11-03T02:30:43.972Z,8.04
2022-11-03T02:31:48.207Z,8.04
2022-11-03T02:32:52.487Z,8.04
2022-11-03T02:33:56.616Z,8.04
2022-11-03T02:35:00.810Z,8.04
2022-11-03T02:36:05.008Z,8.04
2022-11-03T02:37:09.204Z,8.03
2022-11-03T02:38:13.499Z,8.01
2022-11-03T02:39:17.790Z,7.99
2022-11-03T02:40:22.049Z,7.98
2022-11-03T02:41:26.229Z,7.98
2022-11-03T02:42:30.526Z,7.98
2022-11-03T02:43:34.691Z,7.98
2022-11-03T02:44:38.898Z,7.98
2022-11-03T02:45:43.214Z,7.98
2022-11-03T02:46:47.331Z,7.98
2022-11-03T02:47:51.618Z,7.99
2022-11-03T02:48:55.781Z,7.99
2022-11-03T02:50:00.343Z,8.00
2022-11-03T02:51:04.381Z,8.00
2022-11-03T02:52:08.503Z,8.00
2022-11-03T02:53:12.732Z,8.01
2022-11-03T02:54:16.926Z,8.01
2022-11-03T02:55:21.230Z,8.02
2022-11-03T02:56:25.531Z,8.04
2022-11-03T02:57:29.664Z,8.05
2022-11-03T02:58:33.850Z,8.06
2022-11-03T02:59:38.067Z,8.07
2022-11-03T03:00:42.292Z,8.08
2022-11-03T03:01:46.687Z,8.08
2022-11-03T03:02:50.677Z,8.10
2022-11-03T03:03:54.926Z,8.11
2022-11-03T03:04:59.112Z,8.13
2022-11-03T03:06:03.433Z,8.15
2022-11-03T03:07:07.656Z,8.17
2022-11-03T03:08:11.809Z,8.18
2022-11-03T03:09:16.042Z,8.19
2022-11-03T03:10:20.348Z,8.21
2022-11-03T03:11:24.542Z,8.22
2022-11-03T03:12:28.732Z,8.23
2022-11-03T03:13:32.952Z,8.24
2022-11-03T03:14:37.188Z,8.25
2022-11-03T03:15:44.511Z,8.27
2022-11-03T03:16:47.722Z,8.28
2022-11-03T03:17:52.015Z,8.29
2022-11-03T03:18:56.162Z,8.31
2022-11-03T03:20:00.398Z,8.33
2022-11-03T03:21:04.620Z,8.35
2022-11-03T03:22:08.791Z,8.37
2022-11-03T03:23:13.415Z,8.38
2022-11-03T03:24:17.168Z,8.40
2022-11-03T03:25:21.440Z,8.41
2022-11-03T03:26:25.720Z,8.42
2022-11-03T03:27:29.977Z,8.43
2022-11-03T03:28:34.115Z,8.44
2022-11-03T03:29:38.341Z,8.46
2022-11-03T03:30:42.632Z,8.47
2022-11-03T03:31:46.799Z,8.48
2022-11-03T03:32:51.084Z,8.50
2022-11-03T03:34:04.474Z,8.52
2022-11-03T03:34:59.362Z,8.53
2022-11-03T03:36:03.652Z,8.54
2022-11-03T03:37:07.939Z,8.54
2022-11-03T03:38:12.147Z,8.56
2022-11-03T03:39:16.467Z,8.56
2022-11-03T03:40:20.589Z,8.58
2022-11-03T03:41:24.825Z,8.59
2022-11-03T03:42:29.155Z,8.59
2022-11-03T03:43:33.375Z,8.61
2022-11-03T03:44:37.681Z,8.62
2022-11-03T03:45:41.847Z,8.63
2022-11-03T03:46:46.163Z,8.64
2022-11-03T03:47:54.910Z,8.64
2022-11-03T03:48:54.536Z,8.64
2022-11-03T03:49:58.742Z,8.64
2022-11-03T03:51:03.055Z,8.65
2022-11-03T03:52:07.293Z,8.65
2022-11-03T03:53:11.553Z,8.65
2022-11-03T03:54:15.719Z,8.66
2022-11-03T03:55:20.001Z,8.66
2022-11-03T03:56:24.234Z,8.68
2022-11-03T03:57:28.388Z,8.68
2022-11-03T03:58:32.564Z,8.69
2022-11-03T03:59:36.784Z,8.70
2022-11-03T04:00:41.011Z,8.69
2022-11-03T04:01:45.554Z,8.70
2022-11-03T04:02:49.566Z,8.69
2022-11-03T04:03:53.837Z,8.70
2022-11-03T04:04:57.978Z,8.69
2022-11-03T04:06:02.199Z,8.69
2022-11-03T04:07:06.408Z,8.69
2022-11-03T04:08:10.712Z,8.69
2022-11-03T04:09:14.849Z,8.69
2022-11-03T04:10:19.052Z,8.68
2022-11-03T04:11:23.383Z,8.67
2022-11-03T04:12:27.521Z,8.66
2022-11-03T04:13:31.825Z,8.65
2022-11-03T04:14:35.970Z,8.63
2022-11-03T04:15:40.288Z,8.61
2022-11-03T04:16:44.485Z,8.60
2022-11-03T04:18:52.873Z,8.57
2022-11-03T04:19:57.089Z,8.56
2022-11-03T04:21:01.426Z,8.56
2022-11-03T04:22:05.701Z,8.55
2022-11-03T04:23:09.963Z,8.56
2022-11-03T04:24:14.198Z,8.56
2022-11-03T04:25:18.453Z,8.57
2022-11-03T04:26:22.703Z,8.57
2022-11-03T04:27:26.981Z,8.57
2022-11-03T04:28:31.213Z,8.58
2022-11-03T04:29:35.488Z,8.59
2022-11-03T04:30:39.692Z,8.60
2022-11-03T04:31:43.850Z,8.61
2022-11-03T04:32:48.138Z,8.61
2022-11-03T04:33:52.286Z,8.61
2022-11-03T04:34:56.452Z,8.62
2022-11-03T04:36:00.685Z,8.61
2022-11-03T04:37:05.022Z,8.61
2022-11-03T04:38:09.348Z,8.60
2022-11-03T04:39:13.412Z,8.60
2022-11-03T04:40:17.604Z,8.59
2022-11-03T04:41:21.807Z,8.59
2022-11-03T04:42:26.137Z,8.58
2022-11-03T04:43:30.342Z,8.57
2022-11-03T04:44:34.614Z,8.55
2022-11-03T04:45:38.899Z,8.55
2022-11-03T04:46:43.182Z,8.54
2022-11-03T04:47:47.314Z,8.54
2022-11-03T04:48:51.601Z,8.54
2022-11-03T04:49:55.790Z,8.54
2022-11-03T04:51:00.114Z,8.54
2022-11-03T04:52:04.345Z,8.55
2022-11-03T04:53:08.955Z,8.56
2022-11-03T04:54:12.757Z,8.57
2022-11-03T04:55:16.979Z,8.58
2022-11-03T04:56:21.286Z,8.58
2022-11-03T04:57:25.508Z,8.59
2022-11-03T04:58:29.772Z,8.60
2022-11-03T04:59:33.972Z,8.60
2022-11-03T05:00:38.206Z,8.61
2022-11-03T05:01:42.702Z,8.61
2022-11-03T05:02:49.058Z,8.62
2022-11-03T05:03:50.950Z,8.63
2022-11-03T05:04:55.216Z,8.63
2022-11-03T05:05:59.384Z,8.64
2022-11-03T05:07:03.692Z,8.64
2022-11-03T05:08:07.849Z,8.64
2022-11-03T05:09:12.142Z,8.63
2022-11-03T05:10:16.336Z,8.62
2022-11-03T05:11:20.531Z,8.62
2022-11-03T05:12:24.722Z,8.61
2022-11-03T05:13:28.899Z,8.61
2022-11-03T05:14:33.110Z,8.61
2022-11-03T05:15:37.338Z,8.60
2022-11-03T05:16:41.518Z,8.60
2022-11-03T05:17:45.740Z,8.59
2022-11-03T05:18:49.944Z,8.59
2022-11-03T05:19:54.117Z,8.58
2022-11-03T05:20:58.387Z,8.57
2022-11-03T05:22:02.537Z,8.57
2022-11-03T05:23:07.274Z,8.55
2022-11-03T05:24:11.092Z,8.53
2022-11-03T05:25:15.230Z,8.52
2022-11-03T05:26:19.438Z,8.51
2022-11-03T05:27:23.729Z,8.50
2022-11-03T05:28:27.970Z,8.49
2022-11-03T05:29:32.255Z,8.48
2022-11-03T05:30:36.450Z,8.46
2022-11-03T05:31:40.723Z,8.45
2022-11-03T05:32:44.791Z,8.43
2022-11-03T05:33:49.106Z,8.41
2022-11-03T05:34:53.271Z,8.39
2022-11-03T05:35:57.558Z,8.38
2022-11-03T05:37:01.822Z,8.38
2022-11-03T05:38:06.395Z,8.37
2022-11-03T05:39:10.184Z,8.37
2022-11-03T05:40:14.475Z,8.36
2022-11-03T05:41:18.742Z,8.35
2022-11-03T05:42:23.021Z,8.34
2022-11-03T05:43:27.144Z,8.33
2022-11-03T05:44:31.391Z,8.31
2022-11-03T05:45:35.592Z,8.31
2022-11-03T05:46:39.780Z,8.31
2022-11-03T05:47:44.013Z,8.31
2022-11-03T05:48:48.192Z,8.31
2022-11-03T05:49:52.472Z,8.31
2022-11-03T05:50:56.620Z,8.31
2022-11-03T05:52:00.919Z,8.30
2022-11-03T05:53:05.157Z,8.30
2022-11-03T05:54:09.427Z,8.30
2022-11-03T05:55:13.574Z,8.30
2022-11-03T05:56:17.854Z,8.30
2022-11-03T05:57:22.026Z,8.31
2022-11-03T05:58:26.219Z,8.31
2022-11-03T05:59:30.420Z,8.31
2022-11-03T06:00:34.643Z,8.31
2022-11-03T06:01:38.914Z,8.30
2022-11-03T06:02:43.168Z,8.30
2022-11-03T06:03:47.267Z,8.30
2022-11-03T06:04:51.457Z,8.30
2022-11-03T06:05:55.767Z,8.30
2022-11-03T06:06:59.998Z,8.30
2022-11-03T06:08:04.513Z,8.29
2022-11-03T06:09:08.432Z,8.29
2022-11-03T06:10:12.482Z,8.28
2022-11-03T06:11:16.726Z,8.28
2022-11-03T06:12:21.039Z,8.28
2022-11-03T06:13:25.287Z,8.28
2022-11-03T06:14:29.417Z,8.28
2022-11-03T06:15:33.779Z,8.27
2022-11-03T06:16:37.855Z,8.28
2022-11-03T06:17:42.146Z,8.27
2022-11-03T06:18:46.296Z,8.27
2022-11-03T06:19:50.626Z,8.27
2022-11-03T06:20:54.741Z,8.28
2022-11-03T06:21:58.931Z,8.28
2022-11-03T06:23:03.342Z,8.28
2022-11-03T06:24:07.410Z,8.28
2022-11-03T06:25:11.575Z,8.28
2022-11-03T06:26:15.871Z,8.28
2022-11-03T06:27:20.032Z,8.29
2022-11-03T06:28:24.236Z,8.30
2022-11-03T06:29:28.524Z,8.29
2022-11-03T06:30:32.711Z,8.30
2022-11-03T06:31:36.939Z,8.30
2022-11-03T06:32:41.106Z,8.30
2022-11-03T06:33:45.427Z,8.30
2022-11-03T06:34:49.580Z,8.31
2022-11-03T06:35:53.878Z,8.33
2022-11-03T06:36:57.888Z,8.33
2022-11-03T06:38:02.137Z,8.35
2022-11-03T06:39:06.474Z,8.36
2022-11-03T06:40:10.732Z,8.38
2022-11-03T06:41:15.020Z,8.39
2022-11-03T06:42:19.155Z,8.41
2022-11-03T06:43:23.346Z,8.43
2022-11-03T06:44:27.640Z,8.46
2022-11-03T06:45:31.789Z,8.49
2022-11-03T06:46:36.030Z,8.51
2022-11-03T06:47:40.210Z,8.52
2022-11-03T06:48:44.449Z,8.53
2022-11-03T06:49:48.693Z,8.54
2022-11-03T06:50:52.847Z,8.56
2022-11-03T06:51:57.063Z,8.58
2022-11-03T06:53:01.224Z,8.59
2022-11-03T06:54:05.469Z,8.61
2022-11-03T06:55:12.324Z,8.62
2022-11-03T06:56:13.843Z,8.63
2022-11-03T06:57:18.154Z,8.63
2022-11-03T06:58:22.286Z,8.63
2022-11-03T06:59:26.606Z,8.64
2022-11-03T07:00:35.725Z,8.64
2022-11-03T07:01:35.197Z,8.65
2022-11-03T07:02:39.220Z,8.65
2022-11-03T07:03:43.307Z,8.66
2022-11-03T07:04:47.548Z,8.67
2022-11-03T07:05:51.844Z,8.68
2022-11-03T07:06:56.027Z,8.68
2022-11-03T07:08:00.330Z,8.68
2022-11-03T07:09:04.488Z,8.69
2022-11-03T07:10:08.837Z,8.70
2022-11-03T07:11:13.001Z,8.71
2022-11-03T07:12:17.303Z,8.72
2022-11-03T07:13:21.453Z,8.72
2022-11-03T07:14:25.690Z,8.72
2022-11-03T07:15:29.985Z,8.73
2022-11-03T07:16:34.146Z,8.74
2022-11-03T07:17:38.375Z,8.75
2022-11-03T07:18:42.548Z,8.76
2022-11-03T07:19:46.727Z,8.78
2022-11-03T07:20:50.919Z,8.78
2022-11-03T07:21:55.158Z,8.79
2022-11-03T07:22:59.360Z,8.79
2022-11-03T07:24:03.601Z,8.80
2022-11-03T07:25:07.799Z,8.80
2022-11-03T07:26:12.113Z,8.81
2022-11-03T07:27:16.255Z,8.82
2022-11-03T07:28:20.497Z,8.83
2022-11-03T07:29:24.715Z,8.84
2022-11-03T07:30:29.038Z,8.85
2022-11-03T07:31:33.182Z,8.85
2022-11-03T07:32:37.410Z,8.86
2022-11-03T07:33:41.594Z,8.88
2022-11-03T07:34:45.823Z,8.89
2022-11-03T07:36:55.868Z,8.92
2022-11-03T07:37:58.629Z,8.93
2022-11-03T07:39:02.767Z,8.93
2022-11-03T07:40:07.105Z,8.94
2022-11-03T07:41:11.331Z,8.94
2022-11-03T07:42:15.572Z,8.93
2022-11-03T07:43:19.705Z,8.93
2022-11-03T07:44:24.012Z,8.94
2022-11-03T07:45:28.195Z,8.94
2022-11-03T07:46:32.436Z,8.95
2022-11-03T07:47:36.724Z,8.95
2022-11-03T07:48:40.790Z,8.97
2022-11-03T07:49:45.217Z,8.98
2022-11-03T07:50:49.477Z,8.99
2022-11-03T07:51:53.643Z,8.99
2022-11-03T07:52:57.838Z,9.01
2022-11-03T07:54:02.189Z,9.04
2022-11-03T07:55:06.378Z,9.05
2022-11-03T07:56:10.695Z,9.06
2022-11-03T07:57:14.802Z,9.08
2022-11-03T07:58:19.028Z,9.09
2022-11-03T07:59:26.275Z,9.11
2022-11-03T08:00:29.516Z,9.13
2022-11-03T08:01:34.007Z,9.15
2022-11-03T08:02:38.145Z,9.17
2022-11-03T08:03:42.194Z,9.19
2022-11-03T08:04:46.440Z,9.20
2022-11-03T08:05:50.765Z,9.22
2022-11-03T08:06:54.901Z,9.25
2022-11-03T08:07:59.153Z,9.27
2022-11-03T08:09:03.349Z,9.29
2022-11-03T08:10:07.588Z,9.31
2022-11-03T08:11:11.811Z,9.33
2022-11-03T08:12:16.156Z,9.35
2022-11-03T08:13:20.283Z,9.37
2022-11-03T08:14:24.525Z,9.39
2022-11-03T08:15:28.772Z,9.41
2022-11-03T08:16:33.130Z,9.43
2022-11-03T08:17:37.371Z,9.44
2022-11-03T08:18:41.543Z,9.46
2022-11-03T08:19:45.770Z,9.47
2022-11-03T08:20:50.082Z,9.49
2022-11-03T08:21:54.279Z,9.51
2022-11-03T08:23:20.080Z,9.53
2022-11-03T08:24:02.871Z,9.56
2022-11-03T08:25:07.078Z,9.58
2022-11-03T08:26:11.289Z,9.60
2022-11-03T08:27:15.623Z,9.63
2022-11-03T08:28:19.877Z,9.64
2022-11-03T08:29:24.078Z,9.67
2022-11-03T08:30:28.321Z,9.69
2022-11-03T08:31:32.615Z,9.72
2022-11-03T08:32:36.799Z,9.74
2022-11-03T08:33:41.055Z,9.77
2022-11-03T08:34:45.327Z,9.80
2022-11-03T08:35:49.412Z,9.82
2022-11-03T08:36:53.763Z,9.85
2022-11-03T08:37:57.973Z,9.87
2022-11-03T08:39:02.302Z,9.91
2022-11-03T08:40:06.486Z,9.94
2022-11-03T08:41:10.713Z,9.97
2022-11-03T08:42:15.027Z,10.00
2022-11-03T08:43:19.212Z,10.03
2022-11-03T08:44:23.580Z,10.06
2022-11-03T08:45:27.735Z,10.09
2022-11-03T08:46:31.940Z,10.12
2022-11-03T08:47:36.198Z,10.15
2022-11-03T08:48:40.571Z,10.18
2022-11-03T08:49:44.729Z,10.21
2022-11-03T08:50:48.991Z,10.25
2022-11-03T08:51:53.234Z,10.28
2022-11-03T08:52:57.463Z,10.31
2022-11-03T08:54:01.655Z,10.34
2022-11-03T08:55:05.916Z,10.37
2022-11-03T08:56:12.581Z,10.40
2022-11-03T08:57:14.474Z,10.42
2022-11-03T08:58:19.758Z,10.45
2022-11-03T08:59:23.634Z,10.47
2022-11-03T09:00:27.930Z,10.50
2022-11-03T09:01:32.207Z,10.53
2022-11-03T09:02:36.513Z,10.56
2022-11-03T09:03:40.814Z,10.58
2022-11-03T09:04:44.897Z,10.60
2022-11-03T09:05:49.124Z,10.63
2022-11-03T09:06:53.379Z,10.65
2022-11-03T09:10:23.439Z,10.72
2022-11-03T09:11:10.379Z,10.74
2022-11-03T09:12:14.756Z,10.76
2022-11-03T09:13:18.872Z,10.78
2022-11-03T09:14:23.110Z,10.80
2022-11-03T09:15:27.329Z,10.82
2022-11-03T09:16:31.625Z,10.84
2022-11-03T09:17:35.852Z,10.86
2022-11-03T09:18:40.110Z,10.88
2022-11-03T09:19:44.430Z,10.90
2022-11-03T09:20:48.641Z,10.93
2022-11-03T09:21:52.881Z,10.94
2022-11-03T09:22:57.197Z,10.97
2022-11-03T09:24:01.433Z,10.99
2022-11-03T09:25:05.650Z,11.01
2022-11-03T09:26:09.970Z,11.04
2022-11-03T09:27:14.211Z,11.06
2022-11-03T09:28:18.487Z,11.08
2022-11-03T09:29:22.736Z,11.10
2022-11-03T09:30:27.021Z,11.12
2022-11-03T09:31:31.311Z,11.14
2022-11-03T09:32:35.521Z,11.16
2022-11-03T09:33:39.775Z,11.19
2022-11-03T09:34:44.002Z,11.21
2022-11-03T09:35:48.264Z,11.23
2022-11-03T09:36:53.404Z,11.26
2022-11-03T09:37:56.812Z,11.27
2022-11-03T09:39:01.091Z,11.29
2022-11-03T09:40:05.332Z,11.31
2022-11-03T09:41:19.002Z,11.34
2022-11-03T09:42:13.784Z,11.36
2022-11-03T09:43:18.021Z,11.38
2022-11-03T09:44:22.278Z,11.41
2022-11-03T09:45:26.604Z,11.43
2022-11-03T09:46:30.842Z,11.46
2022-11-03T09:47:35.042Z,11.49
2022-11-03T09:48:39.321Z,11.52
2022-11-03T09:49:43.720Z,11.55
2022-11-03T09:50:47.875Z,11.58
2022-11-03T09:51:52.202Z,11.61
2022-11-03T09:52:56.361Z,11.64
2022-11-03T09:54:00.608Z,11.67
2022-11-03T09:55:04.894Z,11.70
2022-11-03T09:56:09.114Z,11.74
2022-11-03T09:57:13.392Z,11.76
2022-11-03T09:58:17.638Z,11.79
2022-11-03T09:59:21.884Z,11.82
2022-11-03T10:00:26.153Z,11.85
2022-11-03T10:01:30.667Z,11.87
2022-11-03T10:02:34.747Z,11.90
2022-11-03T10:03:38.933Z,11.92
2022-11-03T10:04:43.241Z,11.94
2022-11-03T10:05:47.543Z,11.96
2022-11-03T10:06:51.709Z,11.98
2022-11-03T10:07:55.945Z,12.00
2022-11-03T10:09:00.206Z,12.03
2022-11-03T10:10:04.435Z,12.04
2022-11-03T10:11:08.714Z,12.06
2022-11-03T10:12:13.027Z,12.08
2022-11-03T10:13:17.188Z,12.10
2022-11-03T10:14:21.461Z,12.11
2022-11-03T10:15:25.777Z,12.13
2022-11-03T10:16:30.073Z,12.15
2022-11-03T10:17:34.348Z,12.17
2022-11-03T10:18:38.666Z,12.18
2022-11-03T10:19:42.857Z,12.20
2022-11-03T10:20:47.100Z,12.21
2022-11-03T10:21:51.324Z,12.23
2022-11-03T10:22:55.673Z,12.24
2022-11-03T10:23:59.877Z,12.25
2022-11-03T10:25:04.236Z,12.28
2022-11-03T10:26:08.410Z,12.29
2022-11-03T10:27:12.683Z,12.30
2022-11-03T10:28:16.922Z,12.32
2022-11-03T10:29:21.178Z,12.34
2022-11-03T10:30:25.504Z,12.35
2022-11-03T10:31:29.742Z,12.35
2022-11-03T10:32:34.064Z,12.36
2022-11-03T10:33:38.284Z,12.36
2022-11-03T10:34:42.528Z,12.37
2022-11-03T10:35:46.871Z,12.37
2022-11-03T10:36:51.242Z,12.38
2022-11-03T10:37:55.416Z,12.38
2022-11-03T10:38:59.798Z,12.39
2022-11-03T10:40:06.937Z,12.39
2022-11-03T10:41:08.400Z,12.39
2022-11-03T10:42:12.736Z,12.40
2022-11-03T10:43:16.946Z,12.40
2022-11-03T10:44:21.191Z,12.41
2022-11-03T10:45:25.566Z,12.41
2022-11-03T10:46:49.191Z,12.41
2022-11-03T10:47:34.023Z,12.42
2022-11-03T10:48:38.371Z,12.43
2022-11-03T10:49:44.000Z,12.45
2022-11-03T10:50:46.885Z,12.46
2022-11-03T10:51:51.116Z,12.47
2022-11-03T10:52:55.412Z,12.48
2022-11-03T10:53:59.593Z,12.49
2022-11-03T10:55:03.871Z,12.50
2022-11-03T10:56:08.227Z,12.51
2022-11-03T10:57:12.528Z,12.52
2022-11-03T10:58:16.844Z,12.53
2022-11-03T10:59:21.140Z,12.54
2022-11-03T11:00:25.390Z,12.55
2022-11-03T11:01:29.832Z,12.57
2022-11-03T11:02:33.970Z,12.57
2022-11-03T11:03:38.251Z,12.58
2022-11-03T11:04:42.581Z,12.58
2022-11-03T11:05:46.739Z,12.58
2022-11-03T11:06:50.990Z,12.58
2022-11-03T11:07:55.467Z,12.58
2022-11-03T11:09:00.188Z,12.59
2022-11-03T11:10:03.834Z,12.58
2022-11-03T11:11:08.149Z,12.58
2022-11-03T11:12:12.304Z,12.59
2022-11-03T11:13:16.588Z,12.59
2022-11-03T11:14:20.794Z,12.59
2022-11-03T11:15:25.101Z,12.59
2022-11-03T11:16:29.320Z,12.60
2022-11-03T11:17:33.664Z,12.60
2022-11-03T11:18:37.876Z,12.60
2022-11-03T11:19:42.165Z,12.62
2022-11-03T11:20:46.436Z,12.62
2022-11-03T11:21:50.672Z,12.63
2022-11-03T11:22:58.028Z,12.63
2022-11-03T11:24:01.307Z,12.64
2022-11-03T11:25:05.578Z,12.65
2022-11-03T11:26:09.894Z,12.65
2022-11-03T11:27:14.080Z,12.66
2022-11-03T11:28:18.326Z,12.66
2022-11-03T11:29:22.739Z,12.66
2022-11-03T11:30:26.907Z,12.67
2022-11-03T11:31:31.308Z,12.68
2022-11-03T11:32:35.598Z,12.69
2022-11-03T11:33:39.935Z,12.69
2022-11-03T11:34:44.224Z,12.71
2022-11-03T11:35:48.474Z,12.72
2022-11-03T11:36:52.684Z,12.72
2022-11-03T11:37:56.932Z,12.73
2022-11-03T11:39:01.109Z,12.74
2022-11-03T11:40:05.423Z,12.75
2022-11-03T11:41:09.814Z,12.77
2022-11-03T11:42:14.206Z,12.79
2022-11-03T11:43:18.265Z,12.80
2022-11-03T11:44:22.527Z,12.81
2022-11-03T11:45:26.801Z,12.82
2022-11-03T11:46:31.073Z,12.82
2022-11-03T11:47:35.439Z,12.83
2022-11-03T11:48:39.656Z,12.83
2022-11-03T11:49:43.942Z,12.84
2022-11-03T11:50:48.200Z,12.85
2022-11-03T11:51:52.467Z,12.86
2022-11-03T11:52:56.729Z,12.88
2022-11-03T11:54:17.033Z,12.89
2022-11-03T11:55:05.342Z,12.89
2022-11-03T11:56:09.668Z,12.90
2022-11-03T11:57:13.871Z,12.90
2022-11-03T11:58:18.188Z,12.91
2022-11-03T11:59:25.181Z,12.91
2022-11-03T12:00:26.800Z,12.91
2022-11-03T12:01:31.207Z,12.92
2022-11-03T12:02:35.347Z,12.93
2022-11-03T12:03:39.766Z,12.94
2022-11-03T12:04:43.953Z,12.93
2022-11-03T12:05:48.311Z,12.93
2022-11-03T12:06:52.475Z,12.94
2022-11-03T12:07:56.740Z,12.94
2022-11-03T12:09:01.018Z,12.93
2022-11-03T12:10:05.382Z,12.94
2022-11-03T12:11:09.752Z,12.93
2022-11-03T12:12:13.941Z,12.93
2022-11-03T12:13:18.344Z,12.94
2022-11-03T12:14:22.529Z,12.94
2022-11-03T12:15:26.914Z,12.94
2022-11-03T12:16:31.133Z,12.94
2022-11-03T12:17:35.511Z,12.94
2022-11-03T12:18:43.587Z,12.95
2022-11-03T12:19:44.016Z,12.96
2022-11-03T12:20:48.278Z,12.98
2022-11-03T12:21:52.566Z,13.00
2022-11-03T12:22:56.847Z,13.02
2022-11-03T12:24:01.156Z,13.05
2022-11-03T12:25:05.483Z,13.09
2022-11-03T12:26:09.802Z,13.13
2022-11-03T12:27:14.110Z,13.17
2022-11-03T12:28:18.312Z,13.21
2022-11-03T12:29:22.732Z,13.25
2022-11-03T12:30:26.948Z,13.29
2022-11-03T12:31:33.122Z,13.33
2022-11-03T12:32:35.827Z,13.37
2022-11-03T12:33:39.824Z,13.41
2022-11-03T12:34:44.195Z,13.45
2022-11-03T12:35:48.525Z,13.50
2022-11-03T12:36:56.219Z,13.53
2022-11-03T12:37:57.118Z,13.58
2022-11-03T12:39:01.489Z,13.63
2022-11-03T12:40:05.792Z,13.67
2022-11-03T12:41:10.159Z,13.72
2022-11-03T12:42:14.477Z,13.76
2022-11-03T12:43:18.663Z,13.81
2022-11-03T12:44:23.046Z,13.83
2022-11-03T12:45:27.369Z,13.84
2022-11-03T12:46:31.563Z,13.84
2022-11-03T12:47:35.925Z,13.84
2022-11-03T12:48:40.238Z,13.83
2022-11-03T12:49:44.581Z,13.83
2022-11-03T12:50:48.824Z,13.82
2022-11-03T12:51:53.186Z,13.82
2022-11-03T12:52:57.536Z,13.83
2022-11-03T12:54:01.858Z,13.83
2022-11-03T12:55:06.166Z,13.82
2022-11-03T12:56:10.504Z,13.80
2022-11-03T12:57:14.791Z,13.79
2022-11-03T12:58:19.141Z,13.79
2022-11-03T12:59:23.356Z,13.79
2022-11-03T13:00:27.640Z,13.79
2022-11-03T13:01:38.276Z,13.78
2022-11-03T13:02:41.099Z,13.78
2022-11-03T13:03:45.195Z,13.78
2022-11-03T13:04:49.441Z,13.78
2022-11-03T13:05:53.822Z,13.77
2022-11-03T13:06:58.055Z,13.74
2022-11-03T13:08:02.391Z,13.71
2022-11-03T13:09:06.705Z,13.69
2022-11-03T13:10:11.016Z,13.68
2022-11-03T13:11:15.349Z,13.65
2022-11-03T13:12:19.682Z,13.64
2022-11-03T13:13:23.897Z,13.61
2022-11-03T13:14:28.214Z,13.58
2022-11-03T13:15:32.540Z,13.57
2022-11-03T13:16:36.847Z,13.55
2022-11-03T13:18:07.026Z,13.54
2022-11-03T13:18:45.363Z,13.52
2022-11-03T13:19:54.459Z,13.51
2022-11-03T13:20:53.918Z,13.49
2022-11-03T13:21:58.311Z,13.48
2022-11-03T13:23:02.489Z,13.47
2022-11-03T13:24:06.772Z,13.45
2022-11-03T13:25:11.128Z,13.44
2022-11-03T13:26:15.430Z,13.43
2022-11-03T13:27:19.568Z,13.41
2022-11-03T13:28:23.886Z,13.39
2022-11-03T13:29:33.995Z,13.37
2022-11-03T13:30:32.538Z,13.35
2022-11-03T13:31:36.890Z,13.33
2022-11-03T13:32:41.228Z,13.31
2022-11-03T13:33:45.460Z,13.29
2022-11-03T13:34:49.768Z,13.28
2022-11-03T13:35:54.119Z,13.27
2022-11-03T13:36:58.225Z,13.26
2022-11-03T13:38:02.542Z,13.24
2022-11-03T13:39:06.809Z,13.23
2022-11-03T13:40:29.239Z,13.22
2022-11-03T13:41:15.334Z,13.21
2022-11-03T13:42:19.596Z,13.20
2022-11-03T13:43:23.886Z,13.18
2022-11-03T13:44:28.141Z,13.13
2022-11-03T13:45:32.522Z,13.12
2022-11-03T13:46:36.834Z,13.12
2022-11-03T13:49:44.677Z,13.12
2022-11-03T13:50:12.884Z,13.11
2022-11-03T13:50:54.011Z,13.11
2022-11-03T13:51:58.246Z,13.10
2022-11-03T13:56:21.448Z,13.08
2022-11-03T13:59:28.662Z,13.02
2022-11-03T14:00:32.516Z,13.02
2022-11-03T14:01:37.571Z,12.99
2022-11-03T14:04:49.749Z,12.96
2022-11-03T14:05:54.005Z,12.94
2022-11-03T14:06:58.239Z,12.91
2022-11-03T14:08:02.572Z,12.90
2022-11-03T14:09:06.833Z,12.90
2022-11-03T14:10:11.216Z,12.90
2022-11-03T14:11:15.529Z,12.90
2022-11-03T14:12:19.769Z,12.89
2022-11-03T14:13:24.076Z,12.87
2022-11-03T14:14:28.357Z,12.84
2022-11-03T14:15:32.622Z,12.81
2022-11-03T14:16:36.916Z,12.78
2022-11-03T14:17:41.250Z,12.76